createdAt,value
2016-12-26T20:37:50.027Z,5.21
2016-12-26T20:38:50.697Z,5.18
2016-12-26T20:39:51.332Z,5.17
2016-12-26T20:40:51.981Z,5.21
2016-12-26T20:41:52.625Z,5.2
2016-12-26T20:42:53.280Z,5.18
2016-12-26T20:43:53.912Z,5.23
2016-12-26T20:44:54.549Z,5.2
2016-12-26T20:45:55.253Z,5.32
2016-12-26T20:46:55.927Z,5.35
2016-12-26T20:47:56.621Z,5.36
2016-12-26T20:48:57.271Z,5.38
2016-12-26T20:49:57.915Z,5.35
2016-12-26T20:50:58.570Z,5.38
2016-12-26T20:51:59.222Z,5.33
2016-12-26T20:52:59.857Z,5.38
2016-12-26T20:54:00.516Z,5.3
2016-12-26T20:55:01.168Z,5.33
2016-12-26T20:56:01.820Z,5.3
2016-12-26T20:57:02.468Z,5.32
2016-12-26T20:58:03.115Z,5.41
2016-12-26T20:59:03.782Z,5.29
2016-12-26T21:00:04.429Z,5.41
2016-12-26T21:01:05.081Z,5.33
2016-12-26T21:02:05.769Z,5.32
2016-12-26T21:03:06.443Z,5.39
2016-12-26T21:04:07.093Z,5.38
2016-12-26T21:05:07.767Z,5.38
2016-12-26T21:06:08.417Z,5.32
2016-12-26T21:07:09.058Z,5.39
2016-12-26T21:08:09.733Z,5.48
2016-12-26T21:09:10.403Z,5.43
2016-12-26T21:10:11.047Z,5.41
2016-12-26T21:11:11.738Z,5.39
2016-12-26T21:12:12.415Z,5.39
2016-12-26T21:13:13.081Z,5.5
2016-12-26T21:14:13.747Z,5.44
2016-12-26T21:15:14.415Z,5.44
2016-12-26T21:16:15.054Z,5.48
2016-12-26T21:17:15.719Z,5.53
2016-12-26T21:18:16.376Z,5.51
2016-12-26T21:19:17.036Z,5.61
2016-12-26T21:20:17.687Z,5.62
2016-12-26T21:21:18.364Z,5.64
2016-12-26T21:22:19.021Z,5.76
2016-12-26T21:23:19.796Z,5.69
2016-12-26T21:24:20.475Z,5.75
2016-12-26T21:25:21.204Z,5.75
2016-12-26T21:26:21.864Z,5.72
2016-12-26T21:27:22.515Z,5.72
2016-12-26T21:28:23.185Z,5.69
2016-12-26T21:29:23.887Z,5.69
2016-12-26T21:30:24.570Z,5.64
2016-12-26T21:31:25.230Z,5.72
2016-12-26T21:32:26.005Z,5.72
2016-12-26T21:33:26.731Z,5.64
2016-12-26T21:34:27.398Z,5.69
2016-12-26T21:35:28.062Z,5.61
2016-12-26T21:36:28.752Z,5.71
2016-12-26T21:37:29.420Z,5.59
2016-12-26T21:38:30.682Z,5.66
2016-12-26T21:39:31.367Z,5.57
2016-12-26T21:40:32.025Z,5.65
2016-12-26T21:41:32.854Z,5.72
2016-12-26T21:42:33.565Z,5.66
2016-12-26T21:43:34.230Z,5.66
2016-12-26T21:44:34.907Z,5.75
2016-12-26T21:45:35.573Z,5.69
2016-12-26T21:46:36.294Z,5.69
2016-12-26T21:47:36.974Z,5.68
2016-12-26T21:48:37.645Z,5.73
2016-12-26T21:49:38.318Z,5.73
2016-12-26T21:50:39.016Z,5.71
2016-12-26T21:51:39.789Z,5.65
2016-12-26T21:52:40.684Z,5.56
2016-12-26T21:53:41.374Z,5.57
2016-12-26T21:54:42.036Z,5.66
2016-12-26T21:55:42.744Z,5.66
2016-12-26T21:56:43.424Z,5.69
2016-12-26T21:57:44.082Z,5.69
2016-12-26T21:58:44.745Z,5.57
2016-12-26T21:59:45.491Z,5.57
2016-12-26T22:00:46.172Z,5.62
2016-12-26T22:01:46.872Z,5.66
2016-12-26T22:02:47.652Z,5.57
2016-12-26T22:03:48.364Z,5.64
2016-12-26T22:04:49.113Z,5.62
2016-12-26T22:05:49.861Z,5.61
2016-12-26T22:06:50.605Z,5.62
2016-12-26T22:07:51.327Z,5.69
2016-12-26T22:08:52.011Z,5.59
2016-12-26T22:09:52.814Z,5.66
2016-12-26T22:10:53.477Z,5.62
2016-12-26T22:11:54.236Z,5.61
2016-12-26T22:12:54.925Z,5.69
2016-12-26T22:13:55.629Z,5.65
2016-12-26T22:14:56.305Z,5.56
2016-12-26T22:15:57.037Z,5.61
2016-12-26T22:16:57.816Z,5.59
2016-12-26T22:17:58.592Z,5.65
2016-12-26T22:18:59.301Z,5.48
2016-12-26T22:19:59.979Z,5.57
2016-12-26T22:21:00.660Z,5.53
2016-12-26T22:22:01.334Z,5.54
2016-12-26T22:23:02.068Z,5.62
2016-12-26T22:24:02.812Z,5.62
2016-12-26T22:25:03.553Z,5.66
2016-12-26T22:26:04.287Z,5.73
2016-12-26T22:27:04.940Z,5.71
2016-12-26T22:28:05.596Z,5.71
2016-12-26T22:29:06.475Z,5.64
2016-12-26T22:30:07.137Z,5.68
2016-12-26T22:31:07.791Z,5.66
2016-12-26T22:32:08.455Z,5.72
2016-12-26T22:33:09.115Z,5.76
2016-12-26T22:34:09.773Z,5.75
2016-12-26T22:35:10.430Z,5.8
2016-12-26T22:36:11.100Z,5.82
2016-12-26T22:37:11.780Z,5.76
2016-12-26T22:38:12.423Z,5.84
2016-12-26T22:39:13.118Z,5.82
2016-12-26T22:40:13.794Z,5.73
2016-12-26T22:41:14.484Z,5.75
2016-12-26T22:42:15.153Z,5.72
2016-12-26T22:43:15.815Z,5.75
2016-12-26T22:44:16.478Z,5.8
2016-12-26T22:45:17.161Z,5.83
2016-12-26T22:46:17.819Z,5.86
2016-12-26T22:47:18.496Z,5.9
2016-12-26T22:48:19.163Z,5.97
2016-12-26T22:49:19.841Z,5.93
2016-12-26T22:50:20.508Z,5.9
2016-12-26T22:51:21.178Z,5.9
2016-12-26T22:52:21.860Z,5.9
2016-12-26T22:53:22.535Z,5.93
2016-12-26T22:54:23.193Z,5.91
2016-12-26T22:55:23.851Z,5.93
2016-12-26T22:56:24.501Z,5.97
2016-12-26T22:57:25.160Z,5.89
2016-12-26T22:58:25.821Z,5.93
2016-12-26T22:59:26.468Z,5.99
2016-12-26T23:00:27.127Z,5.98
2016-12-26T23:01:27.781Z,5.98
2016-12-26T23:02:28.453Z,5.98
2016-12-26T23:03:29.168Z,5.91
2016-12-26T23:04:29.835Z,5.97
2016-12-26T23:05:30.505Z,5.99
2016-12-26T23:06:31.158Z,5.99
2016-12-26T23:07:31.815Z,6.02
2016-12-26T23:08:32.473Z,5.98
2016-12-26T23:09:33.274Z,6.07
2016-12-26T23:10:33.938Z,5.99
2016-12-26T23:11:34.576Z,6.01
2016-12-26T23:12:35.234Z,6.04
2016-12-26T23:13:35.888Z,5.99
2016-12-26T23:14:36.631Z,6.02
2016-12-26T23:15:37.279Z,5.99
2016-12-26T23:16:37.952Z,6.02
2016-12-26T23:17:38.615Z,5.99
2016-12-26T23:18:39.274Z,6.02
2016-12-26T23:19:39.908Z,5.99
2016-12-26T23:20:40.584Z,6.09
2016-12-26T23:21:41.218Z,6.11
2016-12-26T23:22:41.863Z,6.17
2016-12-26T23:23:42.530Z,6.14
2016-12-26T23:24:43.192Z,6.22
2016-12-26T23:25:43.858Z,6.17
2016-12-26T23:26:44.522Z,6.16
2016-12-26T23:27:45.189Z,6.2
2016-12-26T23:28:45.850Z,6.28
2016-12-26T23:29:46.506Z,6.26
2016-12-26T23:30:47.227Z,6.26
2016-12-26T23:31:47.955Z,6.41
2016-12-26T23:32:48.641Z,6.46
2016-12-26T23:33:49.302Z,6.41
2016-12-26T23:34:49.973Z,6.28
2016-12-26T23:35:50.647Z,6.36
2016-12-26T23:36:51.311Z,6.36
2016-12-26T23:37:51.963Z,6.31
2016-12-26T23:38:52.609Z,6.28
2016-12-26T23:39:53.283Z,6.28
2016-12-26T23:40:53.961Z,6.33
2016-12-26T23:41:54.624Z,6.3
2016-12-26T23:42:55.284Z,6.44
2016-12-26T23:43:55.956Z,6.42
2016-12-26T23:44:56.629Z,6.38
2016-12-26T23:45:57.302Z,6.42
2016-12-26T23:46:57.962Z,6.44
2016-12-26T23:47:58.616Z,6.46
2016-12-26T23:48:59.338Z,6.42
2016-12-26T23:49:59.980Z,6.42
2016-12-26T23:51:00.627Z,6.39
2016-12-26T23:52:01.287Z,6.45
2016-12-26T23:53:02.006Z,6.41
2016-12-26T23:54:02.670Z,6.54
2016-12-26T23:55:03.334Z,6.48
2016-12-26T23:56:03.979Z,6.48
2016-12-26T23:57:04.640Z,6.48
2016-12-26T23:58:05.314Z,6.57
2016-12-26T23:59:05.983Z,6.54
